sensor_id;sensor_type;location;lat;lon;timestamp;P1;durP1;ratioP1;P2;durP2;ratioP2
9898;SDS011;4988;49.238;6.698;2023-11-19T00:01:48;2.10;;;2.00;;
9898;SDS011;4988;49.238;6.698;2023-11-19T00:04:14;2.63;;;2.40;;
9898;SDS011;4988;49.238;6.698;2023-11-19T00:06:39;2.57;;;2.10;;
9898;SDS011;4988;49.238;6.698;2023-11-19T00:09:04;2.40;;;2.20;;
9898;SDS011;4988;49.238;6.698;2023-11-19T00:11:30;3.80;;;2.60;;
9898;SDS011;4988;49.238;6.698;2023-11-19T00:13:55;2.30;;;2.10;;
9898;SDS011;4988;49.238;6.698;2023-11-19T00:16:20;3.77;;;2.30;;
9898;SDS011;4988;49.238;6.698;2023-11-19T00:18:45;2.20;;;2.00;;
9898;SDS011;4988;49.238;6.698;2023-11-19T00:21:11;1.93;;;1.73;;
9898;SDS011;4988;49.238;6.698;2023-11-19T00:23:36;3.23;;;1.70;;
9898;SDS011;4988;49.238;6.698;2023-11-19T00:26:02;2.30;;;1.90;;
9898;SDS011;4988;49.238;6.698;2023-11-19T00:28:27;2.17;;;1.97;;
9898;SDS011;4988;49.238;6.698;2023-11-19T00:30:53;1.93;;;1.80;;
9898;SDS011;4988;49.238;6.698;2023-11-19T00:33:19;3.43;;;2.10;;
9898;SDS011;4988;49.238;6.698;2023-11-19T00:35:44;2.20;;;2.00;;
9898;SDS011;4988;49.238;6.698;2023-11-19T00:38:09;2.73;;;1.90;;
9898;SDS011;4988;49.238;6.698;2023-11-19T00:40:35;2.20;;;2.00;;
9898;SDS011;4988;49.238;6.698;2023-11-19T00:43:00;2.53;;;2.13;;
9898;SDS011;4988;49.238;6.698;2023-11-19T00:45:26;3.23;;;2.20;;
9898;SDS011;4988;49.238;6.698;2023-11-19T00:47:52;3.30;;;2.00;;
9898;SDS011;4988;49.238;6.698;2023-11-19T00:50:17;2.37;;;2.17;;
9898;SDS011;4988;49.238;6.698;2023-11-19T00:52:42;2.73;;;2.10;;
9898;SDS011;4988;49.238;6.698;2023-11-19T00:55:08;2.60;;;2.40;;
9898;SDS011;4988;49.238;6.698;2023-11-19T00:57:33;2.77;;;2.23;;
9898;SDS011;4988;49.238;6.698;2023-11-19T00:59:59;2.00;;;1.90;;
9898;SDS011;4988;49.238;6.698;2023-11-19T01:02:25;2.20;;;2.00;;
9898;SDS011;4988;49.238;6.698;2023-11-19T01:04:50;2.10;;;1.90;;
9898;SDS011;4988;49.238;6.698;2023-11-19T01:07:15;3.10;;;2.37;;
9898;SDS011;4988;49.238;6.698;2023-11-19T01:09:41;3.70;;;2.00;;
9898;SDS011;4988;49.238;6.698;2023-11-19T01:12:07;3.00;;;2.03;;
9898;SDS011;4988;49.238;6.698;2023-11-19T01:14:33;3.80;;;2.60;;
9898;SDS011;4988;49.238;6.698;2023-11-19T01:16:58;2.50;;;2.00;;
9898;SDS011;4988;49.238;6.698;2023-11-19T01:19:23;4.63;;;2.30;;
9898;SDS011;4988;49.238;6.698;2023-11-19T01:21:49;3.90;;;2.80;;
9898;SDS011;4988;49.238;6.698;2023-11-19T01:24:15;2.27;;;2.07;;
9898;SDS011;4988;49.238;6.698;2023-11-19T01:26:41;4.00;;;2.40;;
9898;SDS011;4988;49.238;6.698;2023-11-19T01:29:10;3.57;;;2.67;;
9898;SDS011;4988;49.238;6.698;2023-11-19T01:31:38;1.93;;;1.83;;
9898;SDS011;4988;49.238;6.698;2023-11-19T01:34:04;4.63;;;2.20;;
9898;SDS011;4988;49.238;6.698;2023-11-19T01:36:29;3.43;;;2.17;;
9898;SDS011;4988;49.238;6.698;2023-11-19T01:38:54;2.10;;;2.00;;
9898;SDS011;4988;49.238;6.698;2023-11-19T01:41:20;2.20;;;2.00;;
9898;SDS011;4988;49.238;6.698;2023-11-19T01:43:45;2.93;;;2.03;;
9898;SDS011;4988;49.238;6.698;2023-11-19T01:46:12;5.23;;;3.03;;
9898;SDS011;4988;49.238;6.698;2023-11-19T01:48:39;4.70;;;2.10;;
9898;SDS011;4988;49.238;6.698;2023-11-19T01:51:07;2.57;;;2.17;;
9898;SDS011;4988;49.238;6.698;2023-11-19T01:53:33;3.70;;;2.50;;
9898;SDS011;4988;49.238;6.698;2023-11-19T01:56:01;2.83;;;2.20;;
9898;SDS011;4988;49.238;6.698;2023-11-19T01:58:28;2.90;;;2.60;;
9898;SDS011;4988;49.238;6.698;2023-11-19T02:00:55;4.37;;;2.80;;
9898;SDS011;4988;49.238;6.698;2023-11-19T02:03:21;2.87;;;2.37;;
9898;SDS011;4988;49.238;6.698;2023-11-19T02:05:47;3.13;;;2.63;;
9898;SDS011;4988;49.238;6.698;2023-11-19T02:08:14;6.47;;;2.70;;
9898;SDS011;4988;49.238;6.698;2023-11-19T02:10:39;3.40;;;2.90;;
9898;SDS011;4988;49.238;6.698;2023-11-19T02:13:05;3.90;;;2.67;;
9898;SDS011;4988;49.238;6.698;2023-11-19T02:15:31;3.90;;;3.10;;
9898;SDS011;4988;49.238;6.698;2023-11-19T02:17:57;5.03;;;3.03;;
9898;SDS011;4988;49.238;6.698;2023-11-19T02:20:41;6.60;;;3.27;;
9898;SDS011;4988;49.238;6.698;2023-11-19T02:23:07;4.83;;;3.10;;
9898;SDS011;4988;49.238;6.698;2023-11-19T02:25:32;4.47;;;2.87;;
9898;SDS011;4988;49.238;6.698;2023-11-19T02:27:59;4.97;;;3.20;;
9898;SDS011;4988;49.238;6.698;2023-11-19T02:30:25;4.37;;;3.47;;
9898;SDS011;4988;49.238;6.698;2023-11-19T02:32:58;4.27;;;3.17;;
9898;SDS011;4988;49.238;6.698;2023-11-19T02:35:26;4.67;;;3.10;;
9898;SDS011;4988;49.238;6.698;2023-11-19T02:37:53;4.10;;;3.20;;
9898;SDS011;4988;49.238;6.698;2023-11-19T02:40:19;7.20;;;4.10;;
9898;SDS011;4988;49.238;6.698;2023-11-19T02:42:45;4.30;;;3.03;;
9898;SDS011;4988;49.238;6.698;2023-11-19T02:45:10;6.53;;;3.30;;
9898;SDS011;4988;49.238;6.698;2023-11-19T02:47:42;4.47;;;2.80;;
9898;SDS011;4988;49.238;6.698;2023-11-19T02:50:09;3.20;;;2.90;;
9898;SDS011;4988;49.238;6.698;2023-11-19T02:52:42;3.20;;;2.80;;
9898;SDS011;4988;49.238;6.698;2023-11-19T02:55:10;3.73;;;2.80;;
9898;SDS011;4988;49.238;6.698;2023-11-19T02:57:37;3.30;;;2.83;;
9898;SDS011;4988;49.238;6.698;2023-11-19T03:00:16;4.70;;;3.30;;
9898;SDS011;4988;49.238;6.698;2023-11-19T03:02:50;3.53;;;2.80;;
9898;SDS011;4988;49.238;6.698;2023-11-19T03:05:25;4.93;;;2.83;;
9898;SDS011;4988;49.238;6.698;2023-11-19T03:07:52;3.47;;;2.30;;
9898;SDS011;4988;49.238;6.698;2023-11-19T03:10:17;5.60;;;2.60;;
9898;SDS011;4988;49.238;6.698;2023-11-19T03:12:43;3.60;;;2.40;;
9898;SDS011;4988;49.238;6.698;2023-11-19T03:15:10;3.37;;;2.60;;
9898;SDS011;4988;49.238;6.698;2023-11-19T03:17:38;4.43;;;2.50;;
9898;SDS011;4988;49.238;6.698;2023-11-19T03:20:06;2.80;;;2.53;;
9898;SDS011;4988;49.238;6.698;2023-11-19T03:22:34;3.40;;;2.27;;
9898;SDS011;4988;49.238;6.698;2023-11-19T03:25:01;3.03;;;2.40;;
9898;SDS011;4988;49.238;6.698;2023-11-19T03:27:27;2.43;;;2.13;;
9898;SDS011;4988;49.238;6.698;2023-11-19T03:29:52;5.40;;;2.43;;
9898;SDS011;4988;49.238;6.698;2023-11-19T03:32:17;3.30;;;3.00;;
9898;SDS011;4988;49.238;6.698;2023-11-19T03:34:43;2.97;;;2.67;;
9898;SDS011;4988;49.238;6.698;2023-11-19T03:37:08;3.13;;;2.70;;
9898;SDS011;4988;49.238;6.698;2023-11-19T03:39:33;2.83;;;2.50;;
9898;SDS011;4988;49.238;6.698;2023-11-19T03:41:59;3.83;;;2.90;;
9898;SDS011;4988;49.238;6.698;2023-11-19T03:44:25;3.57;;;3.10;;
9898;SDS011;4988;49.238;6.698;2023-11-19T03:46:52;4.53;;;2.70;;
9898;SDS011;4988;49.238;6.698;2023-11-19T03:49:17;2.83;;;2.50;;
9898;SDS011;4988;49.238;6.698;2023-11-19T03:51:43;4.67;;;2.50;;
9898;SDS011;4988;49.238;6.698;2023-11-19T03:54:08;3.83;;;3.07;;
9898;SDS011;4988;49.238;6.698;2023-11-19T03:56:33;4.03;;;2.50;;
9898;SDS011;4988;49.238;6.698;2023-11-19T03:58:59;6.37;;;2.60;;
9898;SDS011;4988;49.238;6.698;2023-11-19T04:01:24;3.27;;;2.47;;
9898;SDS011;4988;49.238;6.698;2023-11-19T04:03:49;3.83;;;2.87;;
9898;SDS011;4988;49.238;6.698;2023-11-19T04:06:14;6.57;;;2.73;;
9898;SDS011;4988;49.238;6.698;2023-11-19T04:08:40;5.33;;;2.53;;
9898;SDS011;4988;49.238;6.698;2023-11-19T04:11:06;3.83;;;2.53;;
9898;SDS011;4988;49.238;6.698;2023-11-19T04:13:31;3.23;;;2.37;;
9898;SDS011;4988;49.238;6.698;2023-11-19T04:15:57;3.73;;;2.43;;
9898;SDS011;4988;49.238;6.698;2023-11-19T04:18:22;2.77;;;2.37;;
9898;SDS011;4988;49.238;6.698;2023-11-19T04:20:48;5.67;;;2.50;;
9898;SDS011;4988;49.238;6.698;2023-11-19T04:23:13;2.93;;;2.40;;
9898;SDS011;4988;49.238;6.698;2023-11-19T04:25:39;4.40;;;2.47;;
9898;SDS011;4988;49.238;6.698;2023-11-19T04:28:04;4.03;;;2.70;;
9898;SDS011;4988;49.238;6.698;2023-11-19T04:30:29;3.00;;;2.53;;
9898;SDS011;4988;49.238;6.698;2023-11-19T04:32:56;3.27;;;2.27;;
9898;SDS011;4988;49.238;6.698;2023-11-19T04:35:22;3.73;;;2.33;;
9898;SDS011;4988;49.238;6.698;2023-11-19T04:37:47;4.63;;;2.50;;
9898;SDS011;4988;49.238;6.698;2023-11-19T04:40:13;3.43;;;2.10;;
9898;SDS011;4988;49.238;6.698;2023-11-19T04:42:38;4.13;;;2.40;;
9898;SDS011;4988;49.238;6.698;2023-11-19T04:45:07;7.53;;;2.20;;
9898;SDS011;4988;49.238;6.698;2023-11-19T04:47:33;3.80;;;2.00;;
9898;SDS011;4988;49.238;6.698;2023-11-19T04:49:59;3.20;;;2.23;;
9898;SDS011;4988;49.238;6.698;2023-11-19T04:52:24;3.23;;;2.00;;
9898;SDS011;4988;49.238;6.698;2023-11-19T04:54:50;5.63;;;2.10;;
9898;SDS011;4988;49.238;6.698;2023-11-19T04:57:15;13.07;;;2.50;;
9898;SDS011;4988;49.238;6.698;2023-11-19T04:59:41;5.83;;;2.30;;
9898;SDS011;4988;49.238;6.698;2023-11-19T05:02:06;4.57;;;1.90;;
9898;SDS011;4988;49.238;6.698;2023-11-19T05:04:33;2.27;;;2.00;;
9898;SDS011;4988;49.238;6.698;2023-11-19T05:06:58;4.00;;;1.87;;
9898;SDS011;4988;49.238;6.698;2023-11-19T05:09:24;5.63;;;2.30;;
9898;SDS011;4988;49.238;6.698;2023-11-19T05:11:49;3.60;;;2.40;;
9898;SDS011;4988;49.238;6.698;2023-11-19T05:14:14;4.30;;;2.17;;
9898;SDS011;4988;49.238;6.698;2023-11-19T05:16:40;4.00;;;2.30;;
9898;SDS011;4988;49.238;6.698;2023-11-19T05:19:06;3.03;;;2.00;;
9898;SDS011;4988;49.238;6.698;2023-11-19T05:21:31;4.33;;;2.50;;
9898;SDS011;4988;49.238;6.698;2023-11-19T05:23:58;2.53;;;2.10;;
9898;SDS011;4988;49.238;6.698;2023-11-19T05:26:24;3.27;;;2.30;;
9898;SDS011;4988;49.238;6.698;2023-11-19T05:28:49;3.17;;;2.10;;
9898;SDS011;4988;49.238;6.698;2023-11-19T05:31:16;6.53;;;2.33;;
9898;SDS011;4988;49.238;6.698;2023-11-19T05:33:42;9.27;;;3.53;;
9898;SDS011;4988;49.238;6.698;2023-11-19T05:36:07;3.60;;;2.30;;
9898;SDS011;4988;49.238;6.698;2023-11-19T05:38:33;3.53;;;2.20;;
9898;SDS011;4988;49.238;6.698;2023-11-19T05:41:00;3.60;;;2.13;;
9898;SDS011;4988;49.238;6.698;2023-11-19T05:43:25;5.20;;;2.40;;
9898;SDS011;4988;49.238;6.698;2023-11-19T05:45:50;4.20;;;2.40;;
9898;SDS011;4988;49.238;6.698;2023-11-19T05:48:16;9.00;;;2.70;;
9898;SDS011;4988;49.238;6.698;2023-11-19T05:50:42;4.53;;;2.80;;
9898;SDS011;4988;49.238;6.698;2023-11-19T05:53:07;5.07;;;2.50;;
9898;SDS011;4988;49.238;6.698;2023-11-19T05:55:35;3.90;;;2.40;;
9898;SDS011;4988;49.238;6.698;2023-11-19T05:58:09;5.00;;;2.70;;
9898;SDS011;4988;49.238;6.698;2023-11-19T06:00:37;7.77;;;2.70;;
9898;SDS011;4988;49.238;6.698;2023-11-19T06:03:02;8.10;;;3.00;;
9898;SDS011;4988;49.238;6.698;2023-11-19T06:05:27;5.57;;;2.43;;
9898;SDS011;4988;49.238;6.698;2023-11-19T06:07:53;4.43;;;2.70;;
9898;SDS011;4988;49.238;6.698;2023-11-19T06:10:18;6.07;;;2.80;;
9898;SDS011;4988;49.238;6.698;2023-11-19T06:12:45;3.60;;;2.70;;
9898;SDS011;4988;49.238;6.698;2023-11-19T06:15:11;5.47;;;2.70;;
9898;SDS011;4988;49.238;6.698;2023-11-19T06:17:36;5.40;;;2.30;;
9898;SDS011;4988;49.238;6.698;2023-11-19T06:20:03;9.63;;;3.40;;
9898;SDS011;4988;49.238;6.698;2023-11-19T06:22:29;6.60;;;3.33;;
9898;SDS011;4988;49.238;6.698;2023-11-19T06:24:55;8.50;;;3.20;;
9898;SDS011;4988;49.238;6.698;2023-11-19T06:27:21;7.17;;;2.83;;
9898;SDS011;4988;49.238;6.698;2023-11-19T06:29:47;8.27;;;3.10;;
9898;SDS011;4988;49.238;6.698;2023-11-19T06:32:12;6.20;;;2.93;;
9898;SDS011;4988;49.238;6.698;2023-11-19T06:34:38;6.37;;;2.73;;
9898;SDS011;4988;49.238;6.698;2023-11-19T06:37:03;6.30;;;2.87;;
9898;SDS011;4988;49.238;6.698;2023-11-19T06:39:29;7.60;;;3.40;;
9898;SDS011;4988;49.238;6.698;2023-11-19T06:41:54;5.20;;;2.87;;
9898;SDS011;4988;49.238;6.698;2023-11-19T06:44:19;7.00;;;3.03;;
9898;SDS011;4988;49.238;6.698;2023-11-19T06:46:45;7.53;;;3.47;;
9898;SDS011;4988;49.238;6.698;2023-11-19T06:49:11;9.60;;;3.20;;
9898;SDS011;4988;49.238;6.698;2023-11-19T06:51:40;7.20;;;2.83;;
9898;SDS011;4988;49.238;6.698;2023-11-19T06:54:06;7.00;;;3.10;;
9898;SDS011;4988;49.238;6.698;2023-11-19T06:56:31;5.50;;;3.00;;
9898;SDS011;4988;49.238;6.698;2023-11-19T06:58:57;7.03;;;2.97;;
9898;SDS011;4988;49.238;6.698;2023-11-19T07:01:22;5.23;;;3.20;;
9898;SDS011;4988;49.238;6.698;2023-11-19T07:03:47;8.50;;;4.00;;
9898;SDS011;4988;49.238;6.698;2023-11-19T07:06:13;9.03;;;3.30;;
9898;SDS011;4988;49.238;6.698;2023-11-19T07:08:39;6.60;;;3.30;;
9898;SDS011;4988;49.238;6.698;2023-11-19T07:11:06;6.43;;;3.00;;
9898;SDS011;4988;49.238;6.698;2023-11-19T07:13:31;7.70;;;3.43;;
9898;SDS011;4988;49.238;6.698;2023-11-19T07:15:57;7.60;;;3.57;;
9898;SDS011;4988;49.238;6.698;2023-11-19T07:18:23;7.37;;;3.17;;
9898;SDS011;4988;49.238;6.698;2023-11-19T07:20:48;6.53;;;3.20;;
9898;SDS011;4988;49.238;6.698;2023-11-19T07:23:13;5.97;;;3.47;;
9898;SDS011;4988;49.238;6.698;2023-11-19T07:25:42;6.03;;;2.87;;
9898;SDS011;4988;49.238;6.698;2023-11-19T07:28:09;9.03;;;3.30;;
9898;SDS011;4988;49.238;6.698;2023-11-19T07:30:35;10.20;;;4.63;;
9898;SDS011;4988;49.238;6.698;2023-11-19T07:33:01;7.50;;;3.27;;
9898;SDS011;4988;49.238;6.698;2023-11-19T07:35:28;7.60;;;3.30;;
9898;SDS011;4988;49.238;6.698;2023-11-19T07:37:55;8.13;;;3.10;;
9898;SDS011;4988;49.238;6.698;2023-11-19T07:40:21;8.13;;;2.70;;
9898;SDS011;4988;49.238;6.698;2023-11-19T07:42:46;9.20;;;3.40;;
9898;SDS011;4988;49.238;6.698;2023-11-19T07:45:12;8.20;;;3.00;;
9898;SDS011;4988;49.238;6.698;2023-11-19T07:47:37;9.37;;;2.80;;
9898;SDS011;4988;49.238;6.698;2023-11-19T07:50:03;11.53;;;3.03;;
9898;SDS011;4988;49.238;6.698;2023-11-19T07:52:29;7.83;;;3.00;;
9898;SDS011;4988;49.238;6.698;2023-11-19T07:54:54;10.07;;;3.87;;
9898;SDS011;4988;49.238;6.698;2023-11-19T07:57:19;3.70;;;2.77;;
9898;SDS011;4988;49.238;6.698;2023-11-19T07:59:45;6.30;;;2.67;;
9898;SDS011;4988;49.238;6.698;2023-11-19T08:02:10;9.73;;;3.00;;
9898;SDS011;4988;49.238;6.698;2023-11-19T08:04:35;5.07;;;2.80;;
9898;SDS011;4988;49.238;6.698;2023-11-19T08:07:01;5.33;;;2.67;;
9898;SDS011;4988;49.238;6.698;2023-11-19T08:09:26;5.77;;;2.60;;
9898;SDS011;4988;49.238;6.698;2023-11-19T08:11:52;7.90;;;2.70;;
9898;SDS011;4988;49.238;6.698;2023-11-19T08:14:17;8.20;;;2.90;;
9898;SDS011;4988;49.238;6.698;2023-11-19T08:16:42;7.73;;;2.90;;
9898;SDS011;4988;49.238;6.698;2023-11-19T08:19:07;6.80;;;2.90;;
9898;SDS011;4988;49.238;6.698;2023-11-19T08:21:33;6.93;;;3.50;;
9898;SDS011;4988;49.238;6.698;2023-11-19T08:23:59;6.87;;;2.50;;
9898;SDS011;4988;49.238;6.698;2023-11-19T08:26:24;6.00;;;2.50;;
9898;SDS011;4988;49.238;6.698;2023-11-19T08:28:49;7.43;;;2.63;;
9898;SDS011;4988;49.238;6.698;2023-11-19T08:31:17;5.87;;;2.50;;
9898;SDS011;4988;49.238;6.698;2023-11-19T08:33:42;7.67;;;2.40;;
9898;SDS011;4988;49.238;6.698;2023-11-19T08:36:07;4.60;;;2.50;;
9898;SDS011;4988;49.238;6.698;2023-11-19T08:38:33;6.97;;;2.30;;
9898;SDS011;4988;49.238;6.698;2023-11-19T08:40:58;8.67;;;3.13;;
9898;SDS011;4988;49.238;6.698;2023-11-19T08:43:25;4.00;;;2.23;;
9898;SDS011;4988;49.238;6.698;2023-11-19T08:45:51;5.97;;;2.73;;
9898;SDS011;4988;49.238;6.698;2023-11-19T08:48:16;3.83;;;2.33;;
9898;SDS011;4988;49.238;6.698;2023-11-19T08:50:41;4.93;;;2.43;;
9898;SDS011;4988;49.238;6.698;2023-11-19T08:53:07;7.27;;;2.37;;
9898;SDS011;4988;49.238;6.698;2023-11-19T08:55:32;5.97;;;2.40;;
9898;SDS011;4988;49.238;6.698;2023-11-19T08:57:57;8.17;;;2.40;;
9898;SDS011;4988;49.238;6.698;2023-11-19T09:00:23;7.30;;;2.30;;
9898;SDS011;4988;49.238;6.698;2023-11-19T09:02:48;5.83;;;2.20;;
9898;SDS011;4988;49.238;6.698;2023-11-19T09:05:14;9.00;;;2.40;;
9898;SDS011;4988;49.238;6.698;2023-11-19T09:07:39;2.90;;;2.60;;
9898;SDS011;4988;49.238;6.698;2023-11-19T09:10:04;9.13;;;2.37;;
9898;SDS011;4988;49.238;6.698;2023-11-19T09:12:30;5.53;;;2.23;;
9898;SDS011;4988;49.238;6.698;2023-11-19T09:14:56;7.67;;;2.30;;
9898;SDS011;4988;49.238;6.698;2023-11-19T09:17:21;7.73;;;2.50;;
9898;SDS011;4988;49.238;6.698;2023-11-19T09:19:46;4.13;;;2.27;;
9898;SDS011;4988;49.238;6.698;2023-11-19T09:22:11;5.40;;;2.50;;
9898;SDS011;4988;49.238;6.698;2023-11-19T09:24:37;8.40;;;2.30;;
9898;SDS011;4988;49.238;6.698;2023-11-19T09:27:03;7.33;;;2.83;;
9898;SDS011;4988;49.238;6.698;2023-11-19T09:29:31;4.27;;;2.33;;
9898;SDS011;4988;49.238;6.698;2023-11-19T09:31:56;4.17;;;2.30;;
9898;SDS011;4988;49.238;6.698;2023-11-19T09:34:22;5.03;;;2.17;;
9898;SDS011;4988;49.238;6.698;2023-11-19T09:36:47;8.67;;;2.13;;
9898;SDS011;4988;49.238;6.698;2023-11-19T09:39:12;8.23;;;2.30;;
9898;SDS011;4988;49.238;6.698;2023-11-19T09:41:39;12.23;;;2.47;;
9898;SDS011;4988;49.238;6.698;2023-11-19T09:44:05;5.60;;;2.27;;
9898;SDS011;4988;49.238;6.698;2023-11-19T09:46:31;5.10;;;1.87;;
9898;SDS011;4988;49.238;6.698;2023-11-19T09:48:57;5.43;;;2.30;;
9898;SDS011;4988;49.238;6.698;2023-11-19T09:51:24;5.90;;;2.20;;
9898;SDS011;4988;49.238;6.698;2023-11-19T09:53:49;4.80;;;2.20;;
9898;SDS011;4988;49.238;6.698;2023-11-19T09:56:15;6.37;;;2.00;;
9898;SDS011;4988;49.238;6.698;2023-11-19T09:58:42;5.80;;;2.40;;
9898;SDS011;4988;49.238;6.698;2023-11-19T10:01:07;12.63;;;1.93;;
9898;SDS011;4988;49.238;6.698;2023-11-19T10:03:35;10.07;;;2.00;;
9898;SDS011;4988;49.238;6.698;2023-11-19T10:06:03;8.17;;;2.03;;
9898;SDS011;4988;49.238;6.698;2023-11-19T10:08:28;4.93;;;2.20;;
9898;SDS011;4988;49.238;6.698;2023-11-19T10:10:54;5.80;;;2.17;;
9898;SDS011;4988;49.238;6.698;2023-11-19T10:13:19;5.00;;;1.97;;
9898;SDS011;4988;49.238;6.698;2023-11-19T10:15:51;6.37;;;2.20;;
9898;SDS011;4988;49.238;6.698;2023-11-19T10:18:17;6.10;;;1.77;;
9898;SDS011;4988;49.238;6.698;2023-11-19T10:20:43;4.80;;;2.30;;
9898;SDS011;4988;49.238;6.698;2023-11-19T10:23:09;3.90;;;2.20;;
9898;SDS011;4988;49.238;6.698;2023-11-19T10:25:36;7.30;;;2.00;;
9898;SDS011;4988;49.238;6.698;2023-11-19T10:28:01;4.20;;;1.93;;
9898;SDS011;4988;49.238;6.698;2023-11-19T10:30:28;8.37;;;2.03;;
9898;SDS011;4988;49.238;6.698;2023-11-19T10:35:33;6.03;;;2.00;;
9898;SDS011;4988;49.238;6.698;2023-11-19T10:38:00;5.37;;;2.27;;
9898;SDS011;4988;49.238;6.698;2023-11-19T10:40:39;4.37;;;1.97;;
9898;SDS011;4988;49.238;6.698;2023-11-19T10:43:07;8.30;;;2.17;;
9898;SDS011;4988;49.238;6.698;2023-11-19T10:45:37;3.07;;;2.00;;
9898;SDS011;4988;49.238;6.698;2023-11-19T10:48:03;3.00;;;1.90;;
9898;SDS011;4988;49.238;6.698;2023-11-19T10:50:37;5.83;;;1.97;;
9898;SDS011;4988;49.238;6.698;2023-11-19T10:53:03;7.07;;;2.10;;
9898;SDS011;4988;49.238;6.698;2023-11-19T10:55:30;6.33;;;2.03;;
9898;SDS011;4988;49.238;6.698;2023-11-19T10:57:58;5.73;;;1.90;;
9898;SDS011;4988;49.238;6.698;2023-11-19T11:00:25;2.50;;;1.90;;
9898;SDS011;4988;49.238;6.698;2023-11-19T11:02:54;5.17;;;2.10;;
9898;SDS011;4988;49.238;6.698;2023-11-19T11:05:24;6.33;;;1.93;;
9898;SDS011;4988;49.238;6.698;2023-11-19T11:07:51;7.63;;;2.23;;
9898;SDS011;4988;49.238;6.698;2023-11-19T11:10:20;5.63;;;2.17;;
9898;SDS011;4988;49.238;6.698;2023-11-19T11:12:51;6.90;;;2.20;;
9898;SDS011;4988;49.238;6.698;2023-11-19T11:15:22;5.47;;;2.10;;
9898;SDS011;4988;49.238;6.698;2023-11-19T11:17:49;3.40;;;2.00;;
9898;SDS011;4988;49.238;6.698;2023-11-19T11:20:16;6.30;;;2.10;;
9898;SDS011;4988;49.238;6.698;2023-11-19T11:22:54;5.40;;;1.90;;
9898;SDS011;4988;49.238;6.698;2023-11-19T11:28:12;4.83;;;2.00;;
9898;SDS011;4988;49.238;6.698;2023-11-19T11:30:46;5.87;;;1.80;;
9898;SDS011;4988;49.238;6.698;2023-11-19T11:34:04;8.07;;;2.10;;
9898;SDS011;4988;49.238;6.698;2023-11-19T11:38:48;5.63;;;1.90;;
9898;SDS011;4988;49.238;6.698;2023-11-19T11:41:18;7.67;;;2.23;;
9898;SDS011;4988;49.238;6.698;2023-11-19T11:43:45;4.50;;;1.80;;
9898;SDS011;4988;49.238;6.698;2023-11-19T11:46:57;5.90;;;1.70;;
9898;SDS011;4988;49.238;6.698;2023-11-19T11:49:03;5.83;;;1.93;;
9898;SDS011;4988;49.238;6.698;2023-11-19T11:54:08;6.33;;;2.10;;
9898;SDS011;4988;49.238;6.698;2023-11-19T11:56:36;6.87;;;2.07;;
9898;SDS011;4988;49.238;6.698;2023-11-19T11:59:03;5.50;;;1.90;;
9898;SDS011;4988;49.238;6.698;2023-11-19T12:01:28;6.63;;;2.03;;
9898;SDS011;4988;49.238;6.698;2023-11-19T12:03:57;4.43;;;1.60;;
9898;SDS011;4988;49.238;6.698;2023-11-19T12:06:23;4.77;;;1.77;;
9898;SDS011;4988;49.238;6.698;2023-11-19T12:08:49;6.40;;;1.80;;
9898;SDS011;4988;49.238;6.698;2023-11-19T12:11:14;5.33;;;2.10;;
9898;SDS011;4988;49.238;6.698;2023-11-19T12:13:54;5.97;;;1.90;;
9898;SDS011;4988;49.238;6.698;2023-11-19T12:16:23;6.40;;;1.93;;
9898;SDS011;4988;49.238;6.698;2023-11-19T12:18:48;7.20;;;2.00;;
9898;SDS011;4988;49.238;6.698;2023-11-19T12:21:27;7.93;;;2.03;;
9898;SDS011;4988;49.238;6.698;2023-11-19T12:23:54;9.40;;;1.90;;
9898;SDS011;4988;49.238;6.698;2023-11-19T12:26:21;4.90;;;2.00;;
9898;SDS011;4988;49.238;6.698;2023-11-19T12:28:57;9.57;;;2.00;;
9898;SDS011;4988;49.238;6.698;2023-11-19T12:31:24;7.93;;;2.77;;
9898;SDS011;4988;49.238;6.698;2023-11-19T12:33:50;6.53;;;2.50;;
9898;SDS011;4988;49.238;6.698;2023-11-19T12:36:16;8.07;;;2.20;;
9898;SDS011;4988;49.238;6.698;2023-11-19T12:38:42;7.13;;;2.20;;
9898;SDS011;4988;49.238;6.698;2023-11-19T12:41:10;4.67;;;2.00;;
9898;SDS011;4988;49.238;6.698;2023-11-19T12:43:36;7.33;;;1.90;;
9898;SDS011;4988;49.238;6.698;2023-11-19T12:46:03;5.10;;;1.90;;
9898;SDS011;4988;49.238;6.698;2023-11-19T12:48:50;5.43;;;2.17;;
9898;SDS011;4988;49.238;6.698;2023-11-19T12:51:16;6.27;;;1.93;;
9898;SDS011;4988;49.238;6.698;2023-11-19T12:53:48;9.50;;;2.20;;
9898;SDS011;4988;49.238;6.698;2023-11-19T12:56:19;4.57;;;1.97;;
9898;SDS011;4988;49.238;6.698;2023-11-19T12:58:46;5.50;;;2.10;;
9898;SDS011;4988;49.238;6.698;2023-11-19T13:01:15;6.93;;;2.03;;
9898;SDS011;4988;49.238;6.698;2023-11-19T13:03:42;6.27;;;2.00;;
9898;SDS011;4988;49.238;6.698;2023-11-19T13:06:08;9.10;;;2.40;;
9898;SDS011;4988;49.238;6.698;2023-11-19T13:08:46;10.03;;;2.10;;
9898;SDS011;4988;49.238;6.698;2023-11-19T13:11:32;7.07;;;2.10;;
9898;SDS011;4988;49.238;6.698;2023-11-19T13:14:03;9.57;;;2.80;;
9898;SDS011;4988;49.238;6.698;2023-11-19T13:16:29;13.60;;;4.13;;
9898;SDS011;4988;49.238;6.698;2023-11-19T13:18:55;12.00;;;3.27;;
9898;SDS011;4988;49.238;6.698;2023-11-19T13:21:22;10.03;;;2.60;;
9898;SDS011;4988;49.238;6.698;2023-11-19T13:23:47;7.20;;;2.20;;
9898;SDS011;4988;49.238;6.698;2023-11-19T13:26:12;11.00;;;2.63;;
9898;SDS011;4988;49.238;6.698;2023-11-19T13:28:38;4.40;;;2.30;;
9898;SDS011;4988;49.238;6.698;2023-11-19T13:31:03;7.67;;;1.90;;
9898;SDS011;4988;49.238;6.698;2023-11-19T13:33:29;8.23;;;2.33;;
9898;SDS011;4988;49.238;6.698;2023-11-19T13:35:55;7.67;;;2.50;;
9898;SDS011;4988;49.238;6.698;2023-11-19T13:38:21;8.27;;;2.40;;
9898;SDS011;4988;49.238;6.698;2023-11-19T13:40:46;7.13;;;2.60;;
9898;SDS011;4988;49.238;6.698;2023-11-19T13:43:11;8.47;;;2.30;;
9898;SDS011;4988;49.238;6.698;2023-11-19T13:45:37;10.20;;;2.70;;
9898;SDS011;4988;49.238;6.698;2023-11-19T13:48:02;9.53;;;2.33;;
9898;SDS011;4988;49.238;6.698;2023-11-19T13:50:28;7.50;;;2.30;;
9898;SDS011;4988;49.238;6.698;2023-11-19T13:52:54;5.20;;;2.30;;
9898;SDS011;4988;49.238;6.698;2023-11-19T13:55:19;5.23;;;2.37;;
9898;SDS011;4988;49.238;6.698;2023-11-19T13:57:45;9.97;;;2.50;;
9898;SDS011;4988;49.238;6.698;2023-11-19T14:00:11;7.90;;;2.20;;
9898;SDS011;4988;49.238;6.698;2023-11-19T14:02:41;4.67;;;2.07;;
9898;SDS011;4988;49.238;6.698;2023-11-19T14:05:07;8.50;;;2.60;;
9898;SDS011;4988;49.238;6.698;2023-11-19T14:07:35;10.03;;;2.33;;
9898;SDS011;4988;49.238;6.698;2023-11-19T14:10:01;7.03;;;2.10;;
9898;SDS011;4988;49.238;6.698;2023-11-19T14:12:27;6.97;;;2.30;;
9898;SDS011;4988;49.238;6.698;2023-11-19T14:14:53;10.90;;;2.40;;
9898;SDS011;4988;49.238;6.698;2023-11-19T14:17:19;7.80;;;2.30;;
9898;SDS011;4988;49.238;6.698;2023-11-19T14:19:45;10.30;;;2.30;;
9898;SDS011;4988;49.238;6.698;2023-11-19T14:22:10;13.10;;;3.13;;
9898;SDS011;4988;49.238;6.698;2023-11-19T14:24:36;9.43;;;2.20;;
9898;SDS011;4988;49.238;6.698;2023-11-19T14:27:02;8.47;;;2.87;;
9898;SDS011;4988;49.238;6.698;2023-11-19T14:29:27;8.77;;;2.50;;
9898;SDS011;4988;49.238;6.698;2023-11-19T14:31:55;6.63;;;2.23;;
9898;SDS011;4988;49.238;6.698;2023-11-19T14:34:21;8.93;;;2.60;;
9898;SDS011;4988;49.238;6.698;2023-11-19T14:36:47;10.93;;;2.70;;
9898;SDS011;4988;49.238;6.698;2023-11-19T14:39:12;9.00;;;2.40;;
9898;SDS011;4988;49.238;6.698;2023-11-19T14:41:38;12.37;;;2.90;;
9898;SDS011;4988;49.238;6.698;2023-11-19T14:44:05;6.53;;;2.40;;
9898;SDS011;4988;49.238;6.698;2023-11-19T14:46:30;10.17;;;3.70;;
9898;SDS011;4988;49.238;6.698;2023-11-19T14:48:56;6.73;;;2.20;;
9898;SDS011;4988;49.238;6.698;2023-11-19T14:51:22;11.13;;;2.50;;
9898;SDS011;4988;49.238;6.698;2023-11-19T14:53:47;8.33;;;2.20;;
9898;SDS011;4988;49.238;6.698;2023-11-19T14:56:12;9.03;;;3.07;;
9898;SDS011;4988;49.238;6.698;2023-11-19T14:58:38;10.33;;;2.17;;
9898;SDS011;4988;49.238;6.698;2023-11-19T15:01:04;6.83;;;2.50;;
9898;SDS011;4988;49.238;6.698;2023-11-19T15:03:29;6.87;;;2.33;;
9898;SDS011;4988;49.238;6.698;2023-11-19T15:05:55;9.97;;;2.47;;
9898;SDS011;4988;49.238;6.698;2023-11-19T15:08:21;8.13;;;2.63;;
9898;SDS011;4988;49.238;6.698;2023-11-19T15:10:46;15.40;;;3.30;;
9898;SDS011;4988;49.238;6.698;2023-11-19T15:13:12;13.23;;;3.17;;
9898;SDS011;4988;49.238;6.698;2023-11-19T15:15:37;12.97;;;3.70;;
9898;SDS011;4988;49.238;6.698;2023-11-19T15:18:03;9.67;;;2.90;;
9898;SDS011;4988;49.238;6.698;2023-11-19T15:20:29;8.07;;;2.57;;
9898;SDS011;4988;49.238;6.698;2023-11-19T15:22:56;11.23;;;2.80;;